createdAt,value
2018-08-07T00:00:06.830Z,0
2018-08-07T00:00:47.289Z,0
2018-08-07T00:01:27.658Z,0
2018-08-07T00:02:08.114Z,0
2018-08-07T00:02:48.541Z,0
2018-08-07T00:03:28.870Z,0
2018-08-07T00:04:09.301Z,0
2018-08-07T00:04:49.913Z,0
2018-08-07T00:05:30.576Z,0
2018-08-07T00:06:10.701Z,0
2018-08-07T00:06:51.080Z,0
2018-08-07T00:07:31.457Z,0
2018-08-07T00:08:12.066Z,0
2018-08-07T00:08:52.594Z,0
2018-08-07T00:09:32.980Z,0
2018-08-07T00:10:13.385Z,0
2018-08-07T00:10:53.786Z,0
2018-08-07T00:11:34.178Z,0
2018-08-07T00:12:14.516Z,0
2018-08-07T00:12:55.057Z,0
2018-08-07T00:13:35.572Z,0
2018-08-07T00:14:15.953Z,0
2018-08-07T00:14:56.312Z,0
2018-08-07T00:15:36.719Z,0
2018-08-07T00:16:17.167Z,0
2018-08-07T00:16:57.591Z,0
2018-08-07T00:17:38.018Z,0
2018-08-07T00:18:18.398Z,0
2018-08-07T00:18:58.820Z,0
2018-08-07T00:19:39.249Z,0
2018-08-07T00:20:19.605Z,0
2018-08-07T00:21:00.148Z,0
2018-08-07T00:21:40.414Z,0
2018-08-07T00:22:20.815Z,0
2018-08-07T00:23:01.315Z,0
2018-08-07T00:23:41.739Z,0
2018-08-07T00:24:22.319Z,0
2018-08-07T00:25:02.613Z,0
2018-08-07T00:25:42.984Z,0
2018-08-07T00:26:23.348Z,0
2018-08-07T00:27:03.777Z,0
2018-08-07T00:27:44.103Z,0
2018-08-07T00:28:24.487Z,0
2018-08-07T00:29:04.951Z,0
2018-08-07T00:29:45.334Z,0
2018-08-07T00:30:25.711Z,0
2018-08-07T00:31:06.156Z,0
2018-08-07T00:31:46.619Z,0
2018-08-07T00:32:26.967Z,0
2018-08-07T00:33:07.418Z,0
2018-08-07T00:33:47.890Z,0
2018-08-07T00:34:28.194Z,0
2018-08-07T00:35:08.533Z,0
2018-08-07T00:35:49.062Z,0
2018-08-07T00:36:29.400Z,0
2018-08-07T00:37:09.803Z,0
2018-08-07T00:37:50.270Z,0
2018-08-07T00:38:30.654Z,0
2018-08-07T00:39:11.053Z,0
2018-08-07T00:39:51.415Z,0
2018-08-07T00:40:31.910Z,0
2018-08-07T00:41:12.350Z,0
2018-08-07T00:41:52.704Z,0
2018-08-07T00:42:33.168Z,0
2018-08-07T00:43:13.501Z,0
2018-08-07T00:43:53.914Z,0
2018-08-07T00:44:34.321Z,0
2018-08-07T00:45:14.752Z,0
2018-08-07T00:45:55.147Z,0
2018-08-07T00:46:35.607Z,0
2018-08-07T00:47:16.080Z,0
2018-08-07T00:47:56.359Z,0
2018-08-07T00:48:36.802Z,0
2018-08-07T00:49:17.236Z,0
2018-08-07T00:49:57.585Z,0
2018-08-07T00:50:37.970Z,0
2018-08-07T00:51:18.388Z,0
2018-08-07T00:51:58.838Z,0
2018-08-07T00:52:39.208Z,0
2018-08-07T00:54:56.995Z,0
2018-08-07T00:55:37.355Z,0
2018-08-07T00:56:17.811Z,0
2018-08-07T00:56:58.128Z,0
2018-08-07T00:57:38.559Z,0
2018-08-07T00:58:18.958Z,0
2018-08-07T00:58:59.395Z,0
2018-08-07T01:01:19.523Z,0
2018-08-07T01:01:59.960Z,0
2018-08-07T01:02:40.357Z,0
2018-08-07T01:11:21.899Z,0
2018-08-07T01:12:02.330Z,0
2018-08-07T01:12:43.130Z,0
2018-08-07T01:13:23.455Z,0
2018-08-07T01:14:04.004Z,0
2018-08-07T01:14:44.388Z,0
2018-08-07T01:16:29.384Z,0
2018-08-07T01:17:09.876Z,0
2018-08-07T01:17:50.132Z,0
2018-08-07T01:18:30.561Z,0
2018-08-07T01:19:10.991Z,0
2018-08-07T01:19:51.371Z,0
2018-08-07T01:20:31.800Z,0
2018-08-07T01:21:12.160Z,0
2018-08-07T01:23:49.897Z,0
2018-08-07T01:24:29.675Z,0
2018-08-07T01:25:10.206Z,0
2018-08-07T01:25:50.510Z,0
2018-08-07T01:26:32.884Z,0
2018-08-07T01:27:13.239Z,0
2018-08-07T01:31:11.131Z,0
2018-08-07T01:31:51.566Z,0
2018-08-07T01:32:32.000Z,0
2018-08-07T01:33:12.361Z,0
2018-08-07T01:33:52.731Z,0
2018-08-07T01:34:33.218Z,0
2018-08-07T01:35:13.506Z,0
2018-08-07T01:35:53.949Z,0
2018-08-07T01:36:34.361Z,0
2018-08-07T01:37:14.790Z,0
2018-08-07T01:37:55.386Z,0
2018-08-07T01:38:35.787Z,0
2018-08-07T01:39:16.067Z,0
2018-08-07T01:39:57.574Z,0
2018-08-07T01:40:39.156Z,0
2018-08-07T01:41:19.612Z,0
2018-08-07T01:42:00.056Z,0
2018-08-07T01:42:40.433Z,0
2018-08-07T01:43:20.857Z,0
2018-08-07T01:44:01.611Z,0
2018-08-07T01:44:41.909Z,0
2018-08-07T01:49:02.775Z,0
2018-08-07T01:49:43.123Z,0
2018-08-07T01:50:23.629Z,0
2018-08-07T01:51:03.973Z,0
2018-08-07T01:51:44.349Z,0
2018-08-07T01:52:24.709Z,0
2018-08-07T01:53:05.141Z,0
2018-08-07T01:53:45.564Z,0
2018-08-07T01:54:25.912Z,0
2018-08-07T01:55:06.331Z,0
2018-08-07T01:55:46.713Z,0
2018-08-07T01:56:27.160Z,0
2018-08-07T01:57:07.547Z,0
2018-08-07T01:57:47.939Z,0
2018-08-07T01:58:28.281Z,0
2018-08-07T01:59:08.695Z,0
2018-08-07T01:59:49.102Z,0
2018-08-07T02:00:29.519Z,0
2018-08-07T02:01:09.924Z,0
2018-08-07T02:21:53.653Z,0
2018-08-07T02:22:34.058Z,0
2018-08-07T02:23:14.586Z,0
2018-08-07T02:23:54.952Z,0
2018-08-07T02:24:35.321Z,0
2018-08-07T02:25:15.877Z,0
2018-08-07T02:25:56.170Z,0
2018-08-07T02:26:36.644Z,0
2018-08-07T02:27:58.926Z,0
2018-08-07T02:28:39.655Z,0
2018-08-07T02:29:21.925Z,0
2018-08-07T02:41:01.481Z,0
2018-08-07T02:41:38.884Z,0
2018-08-07T02:42:19.254Z,0
2018-08-07T02:42:59.682Z,0
2018-08-07T02:43:40.467Z,0
2018-08-07T02:44:20.860Z,0
2018-08-07T02:45:07.635Z,0
2018-08-07T02:45:46.187Z,0
2018-08-07T02:46:26.911Z,0
2018-08-07T02:47:07.281Z,0
2018-08-07T02:47:47.931Z,0
2018-08-07T02:48:28.916Z,0
2018-08-07T02:49:09.232Z,0
2018-08-07T02:49:49.714Z,0
2018-08-07T02:50:30.053Z,0
2018-08-07T02:51:10.497Z,0
2018-08-07T02:51:50.935Z,0
2018-08-07T02:52:31.330Z,0
2018-08-07T02:53:11.718Z,0
2018-08-07T02:53:52.080Z,0
2018-08-07T02:54:32.549Z,0
2018-08-07T03:04:40.639Z,0
2018-08-07T03:05:21.081Z,0
2018-08-07T03:06:03.506Z,0
2018-08-07T03:06:43.699Z,0
2018-08-07T03:07:24.078Z,0
2018-08-07T03:08:04.467Z,0
2018-08-07T03:08:44.917Z,0
2018-08-07T03:09:25.341Z,0
2018-08-07T03:10:05.698Z,0
2018-08-07T03:10:46.136Z,0
2018-08-07T03:14:21.639Z,0
2018-08-07T03:15:02.006Z,0
2018-08-07T03:15:42.480Z,0
2018-08-07T03:16:22.866Z,0
2018-08-07T03:17:03.347Z,0
2018-08-07T03:17:43.688Z,0
2018-08-07T03:18:24.085Z,0
2018-08-07T03:19:04.485Z,0
2018-08-07T03:19:44.910Z,0
2018-08-07T03:20:25.607Z,0
2018-08-07T03:21:06.020Z,0
2018-08-07T03:21:46.463Z,0
2018-08-07T03:22:26.779Z,0
2018-08-07T03:23:07.191Z,0
2018-08-07T03:23:47.582Z,0
2018-08-07T03:24:28.004Z,0
2018-08-07T03:25:08.453Z,0
2018-08-07T03:25:48.796Z,0
2018-08-07T03:26:29.204Z,0
2018-08-07T03:27:09.638Z,0
2018-08-07T03:29:33.041Z,0
2018-08-07T03:30:13.268Z,0
2018-08-07T03:30:53.661Z,0
2018-08-07T03:31:34.052Z,0
2018-08-07T03:32:14.850Z,0
2018-08-07T03:32:55.286Z,0
2018-08-07T03:35:23.494Z,0
2018-08-07T03:36:03.834Z,0
2018-08-07T03:36:44.245Z,0
2018-08-07T03:37:24.615Z,0
2018-08-07T03:38:05.042Z,0
2018-08-07T03:38:45.424Z,0
2018-08-07T03:39:25.855Z,0
2018-08-07T03:40:06.268Z,0
2018-08-07T03:42:44.232Z,0
2018-08-07T03:43:24.732Z,0
2018-08-07T03:44:05.116Z,0
2018-08-07T03:44:45.440Z,0
2018-08-07T03:45:25.836Z,0
2018-08-07T03:46:06.244Z,0
2018-08-07T03:46:46.641Z,0
2018-08-07T03:47:27.039Z,0
2018-08-07T03:54:53.619Z,0
2018-08-07T03:55:37.039Z,0
2018-08-07T03:56:17.449Z,0
2018-08-07T03:56:57.864Z,0
2018-08-07T03:57:38.318Z,0
2018-08-07T03:58:18.657Z,0
2018-08-07T03:58:59.111Z,0
2018-08-07T03:59:39.471Z,0
2018-08-07T04:00:19.897Z,0
2018-08-07T04:01:00.267Z,0
2018-08-07T04:01:40.713Z,0
2018-08-07T04:02:21.115Z,0
2018-08-07T04:03:02.119Z,0
2018-08-07T04:03:42.634Z,0
2018-08-07T04:07:51.876Z,0
2018-08-07T04:08:33.697Z,0
2018-08-07T04:09:14.112Z,0
2018-08-07T04:09:54.483Z,0
2018-08-07T04:10:34.899Z,0
2018-08-07T04:11:15.294Z,0
2018-08-07T04:11:55.718Z,0
2018-08-07T04:12:36.242Z,5
2018-08-07T04:13:16.624Z,5
2018-08-07T04:13:57.026Z,5
2018-08-07T04:14:37.421Z,5
2018-08-07T04:15:17.788Z,5
2018-08-07T04:15:58.200Z,5
2018-08-07T04:16:38.615Z,5
2018-08-07T04:17:19.029Z,5
2018-08-07T04:17:59.460Z,5
2018-08-07T04:18:39.856Z,5
2018-08-07T04:19:20.257Z,10
2018-08-07T04:20:00.654Z,10
2018-08-07T04:20:41.124Z,10
2018-08-07T04:21:21.457Z,10
2018-08-07T04:22:01.908Z,10
2018-08-07T04:22:42.327Z,10
2018-08-07T04:23:22.717Z,10
2018-08-07T04:24:03.083Z,10
2018-08-07T04:24:43.509Z,15
2018-08-07T04:25:23.878Z,15
2018-08-07T04:26:04.324Z,15
2018-08-07T04:26:44.725Z,15
2018-08-07T04:27:25.136Z,15
2018-08-07T05:11:00.379Z,105
2018-08-07T05:15:24.410Z,125
2018-08-07T05:16:04.460Z,125
2018-08-07T05:16:44.888Z,125
2018-08-07T05:17:25.349Z,130
2018-08-07T05:18:05.817Z,130
2018-08-07T05:18:47.726Z,135
2018-08-07T05:19:32.730Z,135
2018-08-07T05:21:58.280Z,140
2018-08-07T05:22:51.425Z,140
2018-08-07T05:23:46.631Z,145
2018-08-07T05:24:39.109Z,150
2018-08-07T05:25:36.474Z,155
2018-08-07T05:26:35.326Z,155
2018-08-07T05:27:38.415Z,160
2018-08-07T05:28:31.079Z,165
2018-08-07T05:29:26.665Z,170
2018-08-07T05:30:21.879Z,170
2018-08-07T05:31:14.233Z,175
2018-08-07T05:32:06.697Z,180
2018-08-07T05:33:07.703Z,180
2018-08-07T05:34:11.007Z,180
2018-08-07T05:35:06.679Z,185
2018-08-07T05:36:04.798Z,190
2018-08-07T05:36:55.215Z,195
2018-08-07T05:37:47.867Z,200
2018-08-07T05:38:42.601Z,210
2018-08-07T05:39:34.654Z,210
2018-08-07T05:40:27.282Z,220
2018-08-07T05:41:40.326Z,230
2018-08-07T05:44:20.049Z,260
2018-08-07T05:45:23.404Z,275
2018-08-07T05:46:29.004Z,300
2018-08-07T05:47:23.156Z,320
2018-08-07T05:48:36.355Z,325
2018-08-07T05:49:36.371Z,345
2018-08-07T05:52:02.233Z,410
2018-08-07T05:52:42.687Z,460
2018-08-07T05:53:23.108Z,625
2018-08-07T05:54:03.566Z,885
2018-08-07T05:54:44.162Z,1080
2018-08-07T05:55:24.545Z,1090
2018-08-07T05:56:05.289Z,970
2018-08-07T05:56:45.773Z,835
2018-08-07T05:57:26.189Z,780
2018-08-07T05:58:06.636Z,755
2018-08-07T05:58:47.204Z,740
2018-08-07T05:59:27.532Z,720
2018-08-07T06:00:08.200Z,705
2018-08-07T06:00:49.955Z,710
2018-08-07T06:01:30.361Z,705
2018-08-07T06:02:10.785Z,705
2018-08-07T06:02:51.197Z,715
2018-08-07T06:03:31.708Z,725
2018-08-07T06:04:13.137Z,740
2018-08-07T06:04:53.535Z,745
2018-08-07T06:05:33.945Z,775
2018-08-07T06:06:15.716Z,785
2018-08-07T06:06:57.354Z,790
2018-08-07T06:07:37.559Z,790
2018-08-07T06:08:18.169Z,785
2018-08-07T06:08:59.466Z,785
2018-08-07T06:09:39.886Z,815
2018-08-07T06:10:20.392Z,855
2018-08-07T06:11:00.784Z,865
2018-08-07T06:11:41.250Z,865
2018-08-07T06:12:21.688Z,860
2018-08-07T06:13:02.155Z,835
2018-08-07T06:13:42.671Z,810
2018-08-07T06:14:23.219Z,810
2018-08-07T06:15:04.523Z,840
2018-08-07T06:15:45.167Z,850
2018-08-07T06:16:25.908Z,845
2018-08-07T06:17:06.382Z,830
2018-08-07T06:17:46.855Z,835
2018-08-07T06:18:27.615Z,850
2018-08-07T06:19:09.159Z,865
2018-08-07T06:19:49.764Z,865
2018-08-07T06:20:30.200Z,875
2018-08-07T06:21:11.175Z,885
2018-08-07T06:21:51.700Z,895
2018-08-07T06:22:33.183Z,915
2018-08-07T06:23:12.856Z,925
2018-08-07T06:23:53.437Z,920
2018-08-07T06:24:34.173Z,920
2018-08-07T06:25:14.580Z,925
2018-08-07T06:25:55.080Z,930
2018-08-07T06:26:35.584Z,945
2018-08-07T06:27:16.008Z,940
2018-08-07T06:27:56.699Z,945
2018-08-07T06:28:37.425Z,925
2018-08-07T06:29:18.110Z,910
2018-08-07T06:29:59.077Z,920
2018-08-07T06:30:39.170Z,960
2018-08-07T06:31:20.361Z,995
2018-08-07T06:32:00.787Z,1000
2018-08-07T06:32:41.211Z,990
2018-08-07T06:33:21.750Z,985
2018-08-07T06:34:02.221Z,1005
2018-08-07T06:34:42.768Z,1035
2018-08-07T06:35:23.135Z,1035
2018-08-07T06:36:03.607Z,1045
2018-08-07T06:36:45.794Z,1045
2018-08-07T06:37:26.519Z,1050
2018-08-07T06:38:06.956Z,1055
2018-08-07T06:38:47.180Z,1070
2018-08-07T06:39:27.713Z,1085
2018-08-07T06:40:08.366Z,1075
2018-08-07T06:40:48.842Z,1090
2018-08-07T06:41:29.207Z,1095
2018-08-07T06:42:10.328Z,1100
2018-08-07T06:42:50.794Z,1110
2018-08-07T06:43:31.154Z,1110
2018-08-07T06:44:11.639Z,1115
2018-08-07T06:44:52.109Z,1105
2018-08-07T06:45:32.631Z,1110
2018-08-07T06:46:13.057Z,1130
2018-08-07T06:46:53.563Z,1140
2018-08-07T06:47:33.948Z,1170
2018-08-07T06:48:14.382Z,1180
2018-08-07T06:48:55.760Z,1195
2018-08-07T06:49:36.161Z,1160
2018-08-07T06:50:16.556Z,1120
2018-08-07T06:50:57.003Z,1110
2018-08-07T06:51:37.734Z,1155
2018-08-07T06:52:18.014Z,1045
2018-08-07T06:52:58.362Z,820
2018-08-07T06:53:38.851Z,585
2018-08-07T06:54:19.310Z,530
2018-08-07T06:54:59.778Z,515
2018-08-07T06:55:40.279Z,510
2018-08-07T06:56:20.736Z,505
2018-08-07T06:57:01.183Z,505
2018-08-07T06:57:41.595Z,495
2018-08-07T06:58:22.013Z,500
2018-08-07T06:59:02.689Z,510
2018-08-07T06:59:43.214Z,520
2018-08-07T07:00:23.809Z,515
2018-08-07T07:01:04.164Z,505
2018-08-07T07:01:45.251Z,505
2018-08-07T07:02:25.116Z,525
2018-08-07T07:03:05.622Z,545
2018-08-07T07:03:45.983Z,555
2018-08-07T07:04:26.710Z,560
2018-08-07T07:05:06.853Z,550
2018-08-07T07:05:47.357Z,540
2018-08-07T07:06:27.819Z,530
2018-08-07T07:07:08.365Z,530
2018-08-07T07:07:48.752Z,535
2018-08-07T07:08:29.240Z,550
2018-08-07T07:09:09.866Z,555
2018-08-07T07:09:50.710Z,560
2018-08-07T07:10:30.892Z,560
2018-08-07T07:11:11.340Z,555
2018-08-07T07:11:51.751Z,550
2018-08-07T07:12:33.882Z,550
2018-08-07T07:13:14.199Z,560
2018-08-07T07:13:54.756Z,555
2018-08-07T07:14:35.675Z,550
2018-08-07T07:15:16.350Z,555
2018-08-07T07:15:56.641Z,565
2018-08-07T07:16:36.992Z,585
2018-08-07T07:17:17.431Z,590
2018-08-07T07:17:57.829Z,595
2018-08-07T07:18:38.231Z,575
2018-08-07T07:19:18.697Z,575
2018-08-07T07:19:59.145Z,565
2018-08-07T07:20:39.564Z,560
2018-08-07T07:21:20.029Z,550
2018-08-07T07:22:00.488Z,540
2018-08-07T07:22:40.916Z,525
2018-08-07T07:23:21.392Z,510
2018-08-07T07:24:01.792Z,510
2018-08-07T07:24:42.264Z,500
2018-08-07T07:27:19.572Z,485
2018-08-07T07:28:12.347Z,480
2018-08-07T07:29:08.514Z,475
2018-08-07T07:30:01.846Z,470
2018-08-07T07:30:59.028Z,465
2018-08-07T07:34:46.869Z,280
2018-08-07T07:40:04.952Z,220
2018-08-07T07:40:45.413Z,210
2018-08-07T07:41:25.803Z,200
2018-08-07T07:42:06.278Z,195
2018-08-07T07:42:46.707Z,185
2018-08-07T07:43:27.200Z,185
2018-08-07T07:44:07.650Z,180
2018-08-07T07:44:48.023Z,180
2018-08-07T07:45:28.469Z,175
2018-08-07T07:46:08.876Z,170
2018-08-07T07:46:49.443Z,165
2018-08-07T07:47:29.693Z,165
2018-08-07T07:48:10.110Z,160
2018-08-07T07:48:50.557Z,160
2018-08-07T07:49:31.041Z,155
2018-08-07T07:50:11.391Z,155
2018-08-07T07:50:51.855Z,150
2018-08-07T07:51:32.247Z,150
2018-08-07T07:52:12.682Z,145
2018-08-07T07:52:53.083Z,145
2018-08-07T07:53:33.982Z,140
2018-08-07T07:54:14.397Z,140
2018-08-07T07:54:54.939Z,140
2018-08-07T07:55:35.453Z,135
2018-08-07T07:56:16.053Z,135
2018-08-07T07:56:56.499Z,135
2018-08-07T07:57:37.136Z,130
2018-08-07T07:58:17.639Z,130
2018-08-07T07:58:58.089Z,130
2018-08-07T07:59:38.460Z,125
2018-08-07T08:00:19.481Z,125
2018-08-07T08:01:00.007Z,125
2018-08-07T08:01:40.444Z,125
2018-08-07T08:02:20.931Z,125
2018-08-07T08:03:02.174Z,125
2018-08-07T08:03:42.425Z,125
2018-08-07T08:04:22.921Z,125
2018-08-07T08:05:03.318Z,125
2018-08-07T08:05:43.993Z,125
2018-08-07T08:06:24.386Z,120
2018-08-07T08:07:05.147Z,120
2018-08-07T08:07:46.454Z,120
2018-08-07T08:08:29.336Z,120
2018-08-07T08:09:10.430Z,120
2018-08-07T08:09:51.058Z,120
2018-08-07T08:10:31.580Z,120
2018-08-07T08:13:27.965Z,115
2018-08-07T08:14:18.068Z,115
2018-08-07T08:18:40.846Z,110
2018-08-07T08:19:26.002Z,110
2018-08-07T08:20:06.626Z,110
2018-08-07T08:20:47.178Z,110
2018-08-07T08:21:27.640Z,110
2018-08-07T08:22:08.928Z,110
2018-08-07T08:22:48.663Z,115
2018-08-07T08:23:29.018Z,110
2018-08-07T08:24:09.573Z,110
2018-08-07T08:24:49.901Z,110
2018-08-07T08:25:30.437Z,115
2018-08-07T08:26:11.230Z,110
2018-08-07T08:26:51.596Z,110
2018-08-07T08:27:32.000Z,110
2018-08-07T08:28:12.474Z,110
2018-08-07T08:28:52.812Z,110
2018-08-07T08:29:33.401Z,110
2018-08-07T08:30:13.605Z,115
2018-08-07T08:30:54.161Z,110
2018-08-07T08:31:34.604Z,110
2018-08-07T08:32:15.016Z,110
2018-08-07T08:32:55.543Z,115
2018-08-07T08:33:35.998Z,110
2018-08-07T08:34:16.366Z,110
2018-08-07T08:34:56.808Z,110
2018-08-07T08:35:37.282Z,105
2018-08-07T08:36:17.634Z,105
2018-08-07T08:36:58.206Z,105
2018-08-07T08:37:38.609Z,105
2018-08-07T08:38:19.170Z,105
2018-08-07T08:38:59.655Z,105
2018-08-07T08:39:40.311Z,105
2018-08-07T08:40:21.669Z,105
2018-08-07T08:41:02.293Z,100
2018-08-07T08:41:42.597Z,100
2018-08-07T08:42:22.992Z,100
2018-08-07T08:43:03.465Z,100
2018-08-07T08:43:43.845Z,100
2018-08-07T08:44:24.343Z,100
2018-08-07T08:45:04.740Z,100
2018-08-07T08:45:45.111Z,100
2018-08-07T08:46:25.611Z,100
2018-08-07T08:47:06.064Z,100
2018-08-07T08:47:46.618Z,95
2018-08-07T08:48:27.069Z,95
2018-08-07T08:49:07.456Z,95
2018-08-07T08:49:47.838Z,95
2018-08-07T08:50:28.321Z,95
2018-08-07T08:51:08.852Z,95
2018-08-07T08:51:49.271Z,95
2018-08-07T08:52:29.702Z,95
2018-08-07T08:53:10.104Z,95
2018-08-07T08:53:50.484Z,95
2018-08-07T08:54:30.851Z,95
2018-08-07T08:55:11.324Z,95
2018-08-07T08:55:51.730Z,95
2018-08-07T08:56:32.161Z,95
2018-08-07T08:57:12.597Z,95
2018-08-07T08:57:52.980Z,90
2018-08-07T08:58:33.533Z,90
2018-08-07T08:59:14.011Z,90
2018-08-07T08:59:54.506Z,90
2018-08-07T09:00:35.033Z,90
2018-08-07T09:01:15.751Z,90
2018-08-07T09:01:56.148Z,90
2018-08-07T09:02:36.605Z,90
2018-08-07T09:03:17.360Z,90
2018-08-07T09:03:57.754Z,90
2018-08-07T09:04:38.199Z,90
2018-08-07T09:05:18.556Z,90
2018-08-07T09:05:58.992Z,90
2018-08-07T09:06:39.328Z,90
2018-08-07T09:07:19.828Z,90
2018-08-07T09:08:00.204Z,90
2018-08-07T09:08:40.672Z,85
2018-08-07T09:09:21.098Z,85
2018-08-07T09:10:01.495Z,85
2018-08-07T09:10:42.125Z,85
2018-08-07T09:11:22.387Z,85
2018-08-07T09:12:03.899Z,85
2018-08-07T09:12:43.535Z,85
2018-08-07T09:13:24.046Z,85
2018-08-07T09:14:04.454Z,85
2018-08-07T09:14:44.917Z,85
2018-08-07T09:15:25.346Z,85
2018-08-07T09:16:05.819Z,85
2018-08-07T09:16:46.294Z,85
2018-08-07T09:17:26.693Z,85
2018-08-07T09:18:07.169Z,85
2018-08-07T09:18:47.543Z,85
2018-08-07T09:19:27.980Z,85
2018-08-07T09:20:08.385Z,85
2018-08-07T09:20:49.496Z,85
2018-08-07T09:21:29.844Z,80
2018-08-07T09:22:10.273Z,80
2018-08-07T09:22:50.724Z,80
2018-08-07T09:23:31.199Z,80
2018-08-07T09:24:11.558Z,80
2018-08-07T09:24:51.957Z,80
2018-08-07T09:25:32.443Z,80
2018-08-07T09:26:12.963Z,80
2018-08-07T09:26:53.252Z,80
2018-08-07T09:27:33.631Z,80
2018-08-07T09:28:14.107Z,80
2018-08-07T09:28:54.518Z,80
2018-08-07T09:29:34.999Z,80
2018-08-07T09:30:15.285Z,80
2018-08-07T09:30:55.857Z,80
2018-08-07T09:31:36.263Z,80
2018-08-07T09:32:16.585Z,80
2018-08-07T09:32:57.103Z,80
2018-08-07T09:33:37.527Z,80
2018-08-07T09:34:17.922Z,80
2018-08-07T09:34:58.366Z,80
2018-08-07T09:35:38.796Z,80
2018-08-07T09:36:19.283Z,80
2018-08-07T09:36:59.599Z,80
2018-08-07T09:37:40.000Z,80
2018-08-07T09:38:20.465Z,80
2018-08-07T09:39:01.020Z,80
2018-08-07T09:39:41.769Z,80
2018-08-07T09:40:22.412Z,80
2018-08-07T09:41:02.736Z,80
2018-08-07T09:41:43.175Z,75
2018-08-07T09:42:23.697Z,75
2018-08-07T09:43:04.243Z,75
2018-08-07T09:43:44.883Z,75
2018-08-07T09:44:25.387Z,75
2018-08-07T09:45:05.858Z,75
2018-08-07T09:45:46.160Z,75
2018-08-07T09:46:27.079Z,75
2018-08-07T09:47:07.344Z,75
2018-08-07T09:47:47.664Z,75
2018-08-07T09:48:28.026Z,75
2018-08-07T09:49:08.543Z,75
2018-08-07T09:49:48.971Z,75
2018-08-07T09:50:29.347Z,75
2018-08-07T09:51:10.016Z,75
2018-08-07T09:51:50.630Z,75
2018-08-07T09:52:31.699Z,75
2018-08-07T09:53:12.809Z,75
2018-08-07T09:53:56.406Z,75
2018-08-07T09:54:37.620Z,75
2018-08-07T09:57:24.602Z,75
2018-08-07T09:58:18.019Z,75
2018-08-07T09:59:12.498Z,75
2018-08-07T10:00:06.461Z,75
2018-08-07T10:00:59.548Z,75
2018-08-07T10:01:52.669Z,75
2018-08-07T10:02:49.378Z,75
2018-08-07T10:03:57.799Z,75
2018-08-07T10:06:38.521Z,75
2018-08-07T10:07:45.895Z,75
2018-08-07T10:21:11.853Z,70
2018-08-07T10:22:09.154Z,70
2018-08-07T10:23:13.182Z,70
2018-08-07T10:24:10.774Z,70
2018-08-07T10:25:12.085Z,70
2018-08-07T10:26:09.446Z,70
2018-08-07T10:27:19.737Z,70
2018-08-07T10:28:13.588Z,70
2018-08-07T10:29:15.465Z,70
2018-08-07T11:07:48.568Z,65
2018-08-07T11:08:42.498Z,65
2018-08-07T11:09:38.595Z,65
2018-08-07T11:10:42.165Z,65
2018-08-07T11:11:39.141Z,65
2018-08-07T11:12:34.473Z,65
2018-08-07T11:13:26.685Z,65
2018-08-07T11:14:20.671Z,65
2018-08-07T11:15:14.473Z,65
2018-08-07T11:16:46.275Z,65
2018-08-07T11:17:54.366Z,65
2018-08-07T11:18:53.047Z,65
2018-08-07T11:21:31.231Z,60
2018-08-07T11:22:27.048Z,60
2018-08-07T11:26:27.434Z,60
2018-08-07T11:27:23.427Z,60
2018-08-07T11:28:19.195Z,65
2018-08-07T11:29:17.510Z,60
2018-08-07T11:30:58.556Z,60
2018-08-07T11:32:11.718Z,60
2018-08-07T11:51:12.275Z,60
2018-08-07T11:51:52.582Z,60
2018-08-07T11:52:32.905Z,60
2018-08-07T11:53:14.786Z,60
2018-08-07T11:53:55.869Z,60
2018-08-07T11:54:36.192Z,60
2018-08-07T11:55:16.551Z,60
2018-08-07T11:55:57.237Z,60
2018-08-07T11:56:37.956Z,60
2018-08-07T11:57:18.822Z,60
2018-08-07T11:57:59.684Z,60
2018-08-07T11:58:40.545Z,60
2018-08-07T11:59:20.862Z,60
2018-08-07T12:00:01.552Z,60
2018-08-07T12:00:41.842Z,60
2018-08-07T12:01:25.174Z,60
2018-08-07T12:02:08.460Z,60
2018-08-07T12:02:49.512Z,60
2018-08-07T12:03:31.086Z,60
2018-08-07T12:04:11.593Z,60
2018-08-07T12:04:52.324Z,60
2018-08-07T12:05:32.863Z,60
2018-08-07T12:06:13.915Z,60
2018-08-07T12:06:53.780Z,60
2018-08-07T12:07:34.259Z,60
2018-08-07T12:08:15.196Z,60
2018-08-07T12:08:55.405Z,60
2018-08-07T12:09:35.826Z,60
2018-08-07T12:10:16.760Z,60
2018-08-07T12:10:57.995Z,60
2018-08-07T12:11:43.177Z,60
2018-08-07T12:12:24.091Z,60
2018-08-07T12:13:04.973Z,60
2018-08-07T12:13:46.059Z,60
2018-08-07T12:14:27.005Z,60
2018-08-07T12:15:08.600Z,60
2018-08-07T12:15:51.990Z,60
2018-08-07T12:16:32.714Z,60
2018-08-07T12:17:13.021Z,60
2018-08-07T12:17:53.412Z,60
2018-08-07T12:18:33.841Z,60
2018-08-07T12:19:15.595Z,60
2018-08-07T12:19:56.121Z,60
2018-08-07T12:20:36.817Z,60
2018-08-07T12:21:19.157Z,60
2018-08-07T12:22:22.862Z,60
2018-08-07T12:23:05.513Z,60
2018-08-07T12:23:46.903Z,60
2018-08-07T12:24:26.653Z,60
2018-08-07T12:25:06.987Z,60
2018-08-07T12:25:47.787Z,60
2018-08-07T12:26:28.928Z,60
2018-08-07T12:27:08.741Z,60
2018-08-07T12:27:49.244Z,60
2018-08-07T12:28:30.002Z,60
2018-08-07T12:29:11.582Z,60
2018-08-07T12:29:52.356Z,60
2018-08-07T12:30:39.391Z,60
2018-08-07T12:31:21.490Z,55
2018-08-07T12:32:03.089Z,55
2018-08-07T12:33:55.863Z,55
2018-08-07T12:34:36.450Z,55
2018-08-07T12:35:17.850Z,55
2018-08-07T12:35:58.661Z,55
2018-08-07T12:36:39.278Z,55
2018-08-07T12:37:21.911Z,55
2018-08-07T12:38:05.533Z,55
2018-08-07T12:38:48.237Z,55
2018-08-07T12:39:29.512Z,55
2018-08-07T12:40:10.081Z,55
2018-08-07T12:40:50.551Z,55
2018-08-07T12:41:30.969Z,55
2018-08-07T12:42:11.439Z,55
2018-08-07T12:42:52.027Z,55
2018-08-07T12:43:33.889Z,55
2018-08-07T12:44:15.670Z,55
2018-08-07T12:45:00.117Z,55
2018-08-07T12:45:45.221Z,60
2018-08-07T12:46:25.787Z,55
2018-08-07T12:47:07.180Z,55
2018-08-07T12:47:48.824Z,55
2018-08-07T12:48:28.972Z,55
2018-08-07T12:49:09.459Z,55
2018-08-07T12:49:50.201Z,55
2018-08-07T12:50:32.604Z,55
2018-08-07T12:55:12.565Z,55
2018-08-07T12:56:09.899Z,55
2018-08-07T12:57:10.692Z,55
2018-08-07T12:58:11.752Z,55
2018-08-07T13:01:39.278Z,55
2018-08-07T13:06:37.213Z,55
2018-08-07T13:07:19.416Z,55
2018-08-07T13:08:00.333Z,55
2018-08-07T13:08:40.841Z,55
2018-08-07T13:09:21.315Z,55
2018-08-07T13:10:02.051Z,55
2018-08-07T13:10:42.475Z,55
2018-08-07T13:11:23.037Z,55
2018-08-07T13:12:03.718Z,55
2018-08-07T13:12:44.675Z,55
2018-08-07T13:13:25.179Z,55
2018-08-07T13:14:06.397Z,55
2018-08-07T13:14:46.298Z,55
2018-08-07T13:15:26.963Z,55
2018-08-07T13:16:08.018Z,55
2018-08-07T13:16:48.454Z,55
2018-08-07T13:17:29.254Z,55
2018-08-07T13:18:10.996Z,55
2018-08-07T13:18:50.769Z,55
2018-08-07T13:19:32.050Z,55
2018-08-07T13:20:12.243Z,55
2018-08-07T13:20:53.480Z,55
2018-08-07T13:21:33.604Z,55
2018-08-07T13:22:14.616Z,50
2018-08-07T13:22:55.077Z,50
2018-08-07T13:23:35.489Z,55
2018-08-07T13:24:15.925Z,55
2018-08-07T13:24:56.579Z,55
2018-08-07T13:25:37.044Z,55
2018-08-07T13:26:17.425Z,55
2018-08-07T13:26:58.988Z,55
2018-08-07T13:27:39.393Z,55
2018-08-07T13:28:19.838Z,55
2018-08-07T13:29:00.228Z,55
2018-08-07T13:31:53.827Z,55
2018-08-07T13:32:48.001Z,55
2018-08-07T13:33:44.122Z,55
2018-08-07T13:34:41.863Z,55
2018-08-07T13:35:39.572Z,55
2018-08-07T13:36:34.833Z,55
2018-08-07T13:37:28.118Z,55
2018-08-07T13:38:22.387Z,55
2018-08-07T13:39:21.671Z,55
2018-08-07T13:40:17.552Z,55
2018-08-07T13:41:10.504Z,55
2018-08-07T13:42:04.511Z,55
2018-08-07T13:42:57.786Z,55
2018-08-07T13:43:57.629Z,55
2018-08-07T13:44:55.243Z,55
2018-08-07T13:45:52.913Z,55
2018-08-07T13:46:47.067Z,55
2018-08-07T13:47:43.208Z,55
2018-08-07T13:48:45.000Z,55
2018-08-07T13:49:45.065Z,55
2018-08-07T13:50:37.215Z,55
2018-08-07T13:51:30.263Z,55
2018-08-07T13:52:24.543Z,55
2018-08-07T13:53:17.887Z,55
2018-08-07T13:54:10.361Z,50
2018-08-07T13:55:06.606Z,50
2018-08-07T13:56:02.513Z,50
2018-08-07T13:57:14.735Z,50
2018-08-07T13:58:14.308Z,55
2018-08-07T14:01:17.547Z,50
2018-08-07T14:01:58.016Z,50
2018-08-07T14:02:38.419Z,50
2018-08-07T14:03:18.830Z,50
2018-08-07T14:03:59.283Z,50
2018-08-07T14:04:39.723Z,50
2018-08-07T14:05:20.290Z,50
2018-08-07T14:06:00.699Z,50
2018-08-07T14:06:41.024Z,50
2018-08-07T14:07:21.463Z,50
2018-08-07T14:08:01.922Z,50
2018-08-07T14:08:42.331Z,50
2018-08-07T14:09:23.029Z,50
2018-08-07T14:10:03.475Z,50
2018-08-07T14:16:03.099Z,50